x

Nantucket Sound (44020) Wave Buoy

12:50am - Sun 19th Apr 2015 All times are EDT. -4 hours from GMT.

  • Sig Wave height 1.0ft
  • Swell Direction
  • Peak Period 7s
  • Average Period 4s
  • Wind
    9mph, 11mph gusts
  • Sea Temp 45°f
  • Air Temp 45°f
  • Sea Pressure 1018.2mb
  • Nantucket Sound
  • Nantucket Sound

More Historic Weather Station data

Upgrade to MSW Pro to gain access to the past 30 days of data for over 8000 Wavebouys and Weather Stations around the globe.

Join Pro

Comparision Forecast

View Surf forecast
   
Sun 04/19 12:50am 1ft 7s 4s 9 11 mph 1018.2mb 45f 45f
Sat 04/18 11:50pm 1.3ft 7s 4s 11 13 mph 1017.2mb 45f 46f
10:50pm 1.3ft 3s 3s 2 4 mph 1016.5mb 45f 48f
9:50pm 1.3ft 3s 3s 9 11 mph 1015.5mb 45f 48f
8:50pm 1ft 2s 3s 20 25 mph 1014.2mb 45f 50f
7:50pm 1ft 2s 3s 13 16 mph 1011.3mb 45f 48f
6:50pm 1.3ft 2s 3s 18 20 mph 1010.4mb 44f 50f
5:50pm 1ft 2s 3s 13 16 mph 1010.4mb 44f 49f
4:50pm 1.3ft 3s 3s 18
mph
1010.3mb 44f 51f
3:50pm 0.7ft  -  3s 13 18 mph 1010.6mb 44f 51f
2:50pm 0.7ft  -  4s 13 16 mph 1011.2mb 44f 50f
1:50pm 0.7ft  -  5s 11
mph
1012.2mb 45f 49f
12:50pm 1ft 11s 4s 4 7 mph 1013.5mb 45f 48f
11:50am 1ft 10s 5s 7
mph
1013.9mb 45f 47f
10:50am 1ft 9s 5s 7 9 mph 1014mb 45f 47f
9:50am 0.7ft  -  4s 7 9 mph 1014.1mb 44f 47f
8:50am 0.7ft  -  4s 7
mph
1014mb 44f 47f
7:50am 0.7ft  -  3s 9 11 mph 1014.1mb 44f 47f
6:50am 0.7ft  -  3s 7 9 mph 1013.7mb 44f 47f
5:50am 0.7ft  -  4s 7
mph
1013.3mb 44f 47f
4:50am 0.7ft  -  4s 4
mph
1013.2mb 44f 47f
3:50am 0.7ft  -  4s 4
mph
1013.1mb 44f 47f
2:50am 0.7ft  -  4s 7 9 mph 1012.8mb 44f 48f
1:50am 1ft 7s 4s 4 7 mph 1013.2mb 44f 46f
12:50am 1ft 7s 4s 4 7 mph 1013.3mb 44f 46f
Fri 04/17 11:50pm 1.3ft 7s 4s 4 7 mph 1013.4mb 44f 46f
10:50pm 1.3ft 8s 4s 7
mph
1013.2mb 44f 46f
9:50pm 1ft 5s 3s 9 11 mph 1013.1mb 44f 47f
8:50pm 1.3ft 3s 3s 16
mph
1012.8mb 44f 47f
7:50pm 1.3ft 3s 3s 16 18 mph 1012.3mb 44f 46f
6:50pm 1.6ft 3s 3s 16 18 mph 1012.1mb 44f 46f
5:50pm 1.6ft 3s 3s 20 22 mph 1012.2mb 44f 47f
4:50pm 1.6ft 3s 3s 18 20 mph 1012.6mb 44f 47f
3:50pm 1.3ft 3s 3s 20 25 mph 1013.1mb 44f 48f
2:50pm 1.3ft 4s 3s 16 18 mph 1014mb 44f 48f
1:50pm 1.6ft 3s 3s 16 18 mph 1015.1mb 44f 48f
12:50pm 2.5ft 4s 4s 18 20 mph 1015.9mb 44f 48f
11:50am 2.5ft 4s 4s 20 25 mph 1016.9mb 44f 48f
10:50am 2.5ft 4s 4s 20 22 mph 1017.5mb 44f 49f
9:50am 2.5ft 4s 3s 22 27 mph 1018.3mb 44f 49f
8:50am 2.5ft 4s 3s 25 27 mph 1018.9mb 44f 49f
7:50am 2ft 4s 3s 22 27 mph 1019.7mb 44f 48f
6:50am 2ft 4s 3s 20 25 mph 1020.2mb 44f 48f
5:50am 1.6ft 3s 3s 22 25 mph 1020.3mb 44f 48f
4:50am 1.6ft 3s 3s 18 20 mph 1021.4mb 43f 48f
3:50am 1.6ft 3s 3s 18 20 mph 1022.4mb 43f 47f
2:50am 2ft 3s 3s 18 22 mph 1023.3mb 43f 47f
1:50am 1.6ft 3s 3s 20 22 mph 1024mb 43f 47f
12:50am 1.6ft 3s 3s 20 25 mph 1024.7mb 44f 47f
Thu 04/16 11:50pm 1.3ft 3s 3s 18 20 mph 1026.2mb 44f 47f
10:50pm 1.6ft 3s 3s 16 18 mph 1027.2mb 44f 46f
9:50pm 1.3ft 3s 3s 16
mph
1027.8mb 44f 46f
8:50pm 1ft 3s 3s 16 18 mph 1028.3mb 44f 45f
7:50pm 0.7ft  -  3s 13 16 mph 1028.5mb 44f 45f
6:50pm 0.7ft  -  3s 11 13 mph 1028.9mb 44f 46f
5:50pm 0.7ft  -  3s 13
mph
1029.3mb 44f 46f
4:50pm 0.7ft  -  4s 13
mph
1029.6mb 44f 46f
3:50pm 0.7ft  -  5s 4
mph
1030.4mb 44f 46f
2:50pm 0.7ft  -  5s 4
mph
1031.1mb 44f 45f
1:50pm 0.7ft  -  4s 4 7 mph 1031.3mb 43f 45f
12:50pm 1ft 9s 4s 4 7 mph 1031.9mb 44f 44f
11:50am 1ft 7s 4s 7
mph
1032.4mb 44f 44f
10:50am 1ft 8s 4s 9
mph
1032.5mb 43f 45f
9:50am 1ft 9s 5s 4 7 mph 1032.7mb 43f 46f
8:50am 1ft 7s 4s 7
mph
1032.1mb 43f 45f
7:50am 0.7ft  -  3s 9
mph
1031.5mb 43f 45f
6:50am 0.7ft  -  3s 7 9 mph 1031.3mb 43f 45f
5:50am 0.7ft  -  3s 9 11 mph 1030mb 43f 44f
4:50am 0.7ft  -  4s 7 9 mph 1029.6mb 43f 44f
3:50am 0.7ft  -  5s 7 9 mph 1029.5mb 43f 45f
2:50am 0.7ft  -  5s 7
mph
1029.1mb 43f 46f
1:50am 0.7ft  -  5s 9 11 mph 1028.4mb 43f 47f
12:50am 0.7ft  -  5s 7 9 mph 1028mb 44f 46f
Wed 04/15 11:50pm 0.7ft  -  4s 7 9 mph 1027.9mb 43f 46f
10:50pm 1ft 11s 4s 4 7 mph 1027.2mb 43f 46f
9:50pm 1ft 5s 5s 9
mph
1026.2mb 43f 46f
8:50pm 1ft 7s 4s 9 11 mph 1024.9mb 43f 47f
7:50pm 1ft 3s 3s 7
mph
1023mb 43f 47f
6:50pm 0.7ft  -  4s 7
mph
1022.1mb 43f 46f
5:50pm 0.7ft  -  4s 4
mph
1021.4mb 44f 46f
4:50pm 0.7ft  -  3s 7
mph
1020.4mb 44f 47f
3:50pm 1ft 3s 3s 7
mph
1019.8mb 45f 49f
2:50pm 1ft 3s 3s 4
mph
1019.8mb 45f 51f
1:50pm 1.3ft 3s 3s 9 11 mph 1019.9mb 44f 50f
12:50pm 1.6ft 4s 3s 9 11 mph 1019.4mb 43f 49f
11:50am 1.6ft 4s 3s 18 22 mph 1018.9mb 43f 49f
10:50am 1.3ft 3s 3s 18 20 mph 1018.3mb 43f 48f
9:50am 1.3ft 3s 3s 13 16 mph 1017.8mb 43f 47f
8:50am 1.3ft 6s 3s 11 13 mph 1017.5mb 42f 47f
7:50am 1ft 7s 4s 9 11 mph 1017.4mb 42f 46f
6:50am 0.7ft  -  4s 16 18 mph 1016.6mb 42f 48f
5:50am 0.7ft  -  4s 9 11 mph 1016.7mb 42f 46f